createdAt,value
2023-04-12T00:00:11.219Z,92.65
2023-04-12T00:02:39.470Z,92.75
2023-04-12T00:05:06.464Z,92.90
2023-04-12T00:07:32.938Z,92.94
2023-04-12T00:09:59.595Z,93.37
2023-04-12T00:12:26.039Z,94.16
2023-04-12T00:14:52.452Z,93.83
2023-04-12T00:17:19.402Z,94.66
2023-04-12T00:19:47.624Z,95.43
2023-04-12T00:22:14.958Z,95.66
2023-04-12T00:24:41.779Z,96.56
2023-04-12T00:27:08.451Z,97.62
2023-04-12T00:29:35.014Z,98.40
2023-04-12T00:32:01.716Z,99.50
2023-04-12T00:34:28.725Z,100.00
2023-04-12T00:36:55.984Z,100.00
2023-04-12T00:39:22.745Z,100.00
2023-04-12T00:41:49.383Z,100.00
2023-04-12T00:44:18.094Z,100.00
2023-04-12T00:46:46.360Z,100.00
2023-04-12T00:49:13.106Z,100.00
2023-04-12T00:51:40.363Z,100.00
2023-04-12T00:54:07.401Z,100.00
2023-04-12T00:56:34.826Z,100.00
2023-04-12T00:59:02.113Z,100.00
2023-04-12T01:01:28.673Z,100.00
2023-04-12T01:04:01.011Z,100.00
2023-04-12T01:07:20.898Z,100.00
2023-04-12T01:10:24.297Z,100.00
2023-04-12T01:13:12.951Z,100.00
2023-04-12T01:15:51.716Z,100.00
2023-04-12T01:18:23.631Z,100.00
2023-04-12T01:21:13.703Z,100.00
2023-04-12T01:23:59.156Z,100.00
2023-04-12T01:26:39.365Z,100.00
2023-04-12T01:29:10.892Z,100.00
2023-04-12T01:31:46.491Z,100.00
2023-04-12T01:34:14.732Z,100.00
2023-04-12T01:36:43.899Z,100.00
2023-04-12T01:39:10.786Z,100.00
2023-04-12T01:41:42.150Z,100.00
2023-04-12T01:44:08.797Z,100.00
2023-04-12T01:46:37.474Z,100.00
2023-04-12T01:49:04.316Z,100.00
2023-04-12T01:51:52.595Z,100.00
2023-04-12T01:54:27.493Z,100.00
2023-04-12T01:56:59.640Z,100.00
2023-04-12T01:59:34.796Z,100.00
2023-04-12T02:02:02.745Z,100.00
2023-04-12T02:04:30.285Z,100.00
2023-04-12T02:06:57.321Z,100.00
2023-04-12T02:09:23.987Z,100.00
2023-04-12T02:11:50.650Z,100.00
2023-04-12T02:14:17.481Z,100.00
2023-04-12T02:16:44.754Z,100.00
2023-04-12T02:19:12.477Z,100.00
2023-04-12T02:21:43.374Z,100.00
2023-04-12T02:24:10.604Z,100.00
2023-04-12T02:26:38.354Z,100.00
2023-04-12T02:29:08.970Z,100.00
2023-04-12T02:31:36.882Z,100.00
2023-04-12T02:34:03.269Z,100.00
2023-04-12T02:36:29.712Z,100.00
2023-04-12T02:38:56.550Z,100.00
2023-04-12T02:41:23.813Z,100.00
2023-04-12T02:43:51.028Z,100.00
2023-04-12T02:46:21.779Z,100.00
2023-04-12T02:48:49.146Z,100.00
2023-04-12T02:51:15.810Z,100.00
2023-04-12T02:53:42.815Z,100.00
2023-04-12T02:56:09.610Z,100.00
2023-04-12T02:58:36.828Z,100.00
2023-04-12T03:01:07.824Z,100.00
2023-04-12T03:03:35.690Z,100.00
2023-04-12T03:06:02.593Z,100.00
2023-04-12T03:08:28.968Z,100.00
2023-04-12T03:10:56.223Z,100.00
2023-04-12T03:13:22.670Z,100.00
2023-04-12T03:15:53.036Z,100.00
2023-04-12T03:18:23.474Z,100.00
2023-04-12T03:20:50.286Z,100.00
2023-04-12T03:23:16.684Z,100.00
2023-04-12T03:25:43.774Z,100.00
2023-04-12T03:28:10.330Z,100.00
2023-04-12T03:30:36.768Z,100.00
2023-04-12T03:33:03.270Z,100.00
2023-04-12T03:35:29.746Z,100.00
2023-04-12T03:37:56.104Z,100.00
2023-04-12T03:40:22.487Z,100.00
2023-04-12T03:42:48.856Z,100.00
2023-04-12T03:45:15.335Z,100.00
2023-04-12T03:47:41.884Z,100.00
2023-04-12T03:50:12.412Z,100.00
2023-04-12T03:52:39.206Z,100.00
2023-04-12T03:55:07.462Z,100.00
2023-04-12T03:57:34.652Z,100.00
2023-04-12T04:00:01.348Z,100.00
2023-04-12T04:02:28.125Z,100.00
2023-04-12T04:04:54.871Z,100.00
2023-04-12T04:07:22.415Z,100.00
2023-04-12T04:09:50.022Z,100.00
2023-04-12T04:12:16.592Z,100.00
2023-04-12T04:14:43.056Z,100.00
2023-04-12T04:17:09.500Z,100.00
2023-04-12T04:19:35.911Z,100.00
2023-04-12T04:22:02.475Z,100.00
2023-04-12T04:24:29.161Z,100.00
2023-04-12T04:26:55.557Z,100.00
2023-04-12T04:29:22.059Z,100.00
2023-04-12T04:31:48.749Z,100.00
2023-04-12T04:34:16.412Z,100.00
2023-04-12T04:36:43.741Z,100.00
2023-04-12T04:39:10.449Z,100.00
2023-04-12T04:41:41.386Z,100.00
2023-04-12T04:44:11.215Z,100.00
2023-04-12T04:46:38.200Z,100.00
2023-04-12T04:49:05.389Z,100.00
2023-04-12T04:51:32.420Z,100.00
2023-04-12T04:53:59.237Z,100.00
2023-04-12T04:56:26.209Z,100.00
2023-04-12T04:58:54.062Z,100.00
2023-04-12T05:01:25.789Z,100.00
2023-04-12T05:03:52.410Z,100.00
2023-04-12T05:06:18.946Z,100.00
2023-04-12T05:08:45.374Z,100.00
2023-04-12T05:11:11.838Z,100.00
2023-04-12T05:13:38.272Z,100.00
2023-04-12T05:16:08.168Z,100.00
2023-04-12T05:18:34.805Z,100.00
2023-04-12T05:21:05.367Z,100.00
2023-04-12T05:23:42.872Z,100.00
2023-04-12T05:26:09.267Z,100.00
2023-04-12T05:28:35.676Z,100.00
2023-04-12T05:31:02.253Z,100.00
2023-04-12T05:33:29.254Z,100.00
2023-04-12T05:35:57.136Z,100.00
2023-04-12T05:38:24.007Z,100.00
2023-04-12T05:40:50.432Z,100.00
2023-04-12T05:43:17.763Z,100.00
2023-04-12T05:45:44.171Z,100.00
2023-04-12T05:48:11.096Z,100.00
2023-04-12T05:50:37.655Z,100.00
2023-04-12T05:53:04.223Z,100.00
2023-04-12T05:55:30.788Z,100.00
2023-04-12T05:57:58.571Z,100.00
2023-04-12T06:00:25.165Z,100.00
2023-04-12T06:02:52.362Z,100.00
2023-04-12T06:05:19.458Z,100.00
2023-04-12T06:07:49.052Z,100.00
2023-04-12T06:10:17.562Z,100.00
2023-04-12T06:12:44.987Z,100.00
2023-04-12T06:15:11.699Z,100.00
2023-04-12T06:17:38.445Z,100.00
2023-04-12T06:20:09.721Z,100.00
2023-04-12T06:22:37.259Z,100.00
2023-04-12T06:25:04.611Z,100.00
2023-04-12T06:27:31.413Z,100.00
2023-04-12T06:29:58.143Z,100.00
2023-04-12T06:32:25.266Z,100.00
2023-04-12T06:34:51.906Z,100.00
2023-04-12T06:37:18.502Z,100.00
2023-04-12T06:39:44.945Z,100.00
2023-04-12T06:42:14.019Z,100.00
2023-04-12T06:44:41.444Z,100.00
2023-04-12T06:47:08.122Z,100.00
2023-04-12T06:49:34.830Z,100.00
2023-04-12T06:52:01.196Z,100.00
2023-04-12T06:54:27.582Z,100.00
2023-04-12T06:56:53.974Z,100.00
2023-04-12T06:59:20.503Z,100.00
2023-04-12T07:01:46.951Z,100.00
2023-04-12T07:04:13.754Z,100.00
2023-04-12T07:06:40.419Z,100.00
2023-04-12T07:09:06.888Z,100.00
2023-04-12T07:11:33.393Z,100.00
2023-04-12T07:13:59.850Z,100.00
2023-04-12T07:16:26.343Z,100.00
2023-04-12T07:18:52.837Z,100.00
2023-04-12T07:21:19.244Z,100.00
2023-04-12T07:23:47.562Z,100.00
2023-04-12T07:26:13.979Z,100.00
2023-04-12T07:28:40.721Z,100.00
2023-04-12T07:31:07.592Z,100.00
2023-04-12T07:33:35.986Z,100.00
2023-04-12T07:36:03.969Z,100.00
2023-04-12T07:38:30.669Z,100.00
2023-04-12T07:40:57.134Z,100.00
2023-04-12T07:43:23.877Z,100.00
2023-04-12T07:45:50.526Z,100.00
2023-04-12T07:48:17.121Z,100.00
2023-04-12T07:50:43.834Z,100.00
2023-04-12T07:53:26.436Z,100.00
2023-04-12T07:55:53.485Z,100.00
2023-04-12T07:58:22.267Z,100.00
2023-04-12T08:00:49.211Z,100.00
2023-04-12T08:03:17.610Z,100.00
2023-04-12T08:05:45.081Z,100.00
2023-04-12T08:08:12.089Z,100.00
2023-04-12T08:10:40.823Z,100.00
2023-04-12T08:13:07.591Z,100.00
2023-04-12T08:15:34.500Z,100.00
2023-04-12T08:18:02.167Z,100.00
2023-04-12T08:20:29.053Z,100.00
2023-04-12T08:22:55.726Z,100.00
2023-04-12T08:25:22.498Z,100.00
2023-04-12T08:27:50.765Z,100.00
2023-04-12T08:30:18.133Z,100.00
2023-04-12T08:32:44.852Z,100.00
2023-04-12T08:35:12.063Z,100.00
2023-04-12T08:37:38.797Z,100.00
2023-04-12T08:40:07.409Z,100.00
2023-04-12T08:42:38.121Z,100.00
2023-04-12T08:45:06.194Z,100.00
2023-04-12T08:47:34.773Z,100.00
2023-04-12T08:50:02.824Z,100.00
2023-04-12T08:52:29.524Z,100.00
2023-04-12T08:54:56.304Z,100.00
2023-04-12T08:57:22.801Z,100.00
2023-04-12T08:59:51.083Z,100.00
2023-04-12T09:02:17.614Z,100.00
2023-04-12T09:04:50.856Z,100.00
2023-04-12T09:07:17.560Z,100.00
2023-04-12T09:09:47.790Z,100.00
2023-04-12T09:12:15.690Z,100.00
2023-04-12T09:14:45.305Z,100.00
2023-04-12T09:17:25.462Z,100.00
2023-04-12T09:19:52.482Z,100.00
2023-04-12T09:22:19.068Z,100.00
2023-04-12T09:24:47.424Z,100.00
2023-04-12T09:27:13.932Z,100.00
2023-04-12T09:29:40.399Z,100.00
2023-04-12T09:32:08.641Z,100.00
2023-04-12T09:34:36.550Z,100.00
2023-04-12T09:37:17.202Z,100.00
2023-04-12T09:39:43.791Z,100.00
2023-04-12T09:42:25.640Z,100.00
2023-04-12T09:44:58.750Z,100.00
2023-04-12T09:47:39.376Z,100.00
2023-04-12T09:50:07.990Z,100.00
2023-04-12T09:52:38.855Z,100.00
2023-04-12T09:55:10.745Z,100.00
2023-04-12T09:57:44.501Z,100.00
2023-04-12T10:00:14.455Z,100.00
2023-04-12T10:02:44.913Z,100.00
2023-04-12T10:05:16.035Z,100.00
2023-04-12T10:07:43.187Z,100.00
2023-04-12T10:10:14.227Z,100.00
2023-04-12T10:12:42.113Z,100.00
2023-04-12T10:15:13.516Z,100.00
2023-04-12T10:17:46.387Z,100.00
2023-04-12T10:20:14.515Z,100.00
2023-04-12T10:22:53.644Z,100.00
2023-04-12T10:25:22.916Z,100.00
2023-04-12T10:27:49.941Z,100.00
2023-04-12T10:30:28.335Z,100.00
2023-04-12T10:33:08.333Z,100.00
2023-04-12T10:36:08.388Z,100.00
2023-04-12T10:38:47.928Z,100.00
2023-04-12T10:41:15.934Z,100.00
2023-04-12T10:43:47.109Z,100.00
2023-04-12T10:46:45.489Z,100.00
2023-04-12T10:49:13.652Z,100.00
2023-04-12T10:52:00.893Z,100.00
2023-04-12T10:54:27.291Z,100.00
2023-04-12T10:56:53.757Z,100.00
2023-04-12T10:59:20.808Z,100.00
2023-04-12T11:02:13.112Z,100.00
2023-04-12T11:05:09.869Z,100.00
2023-04-12T11:07:44.309Z,100.00
2023-04-12T11:10:15.738Z,100.00
2023-04-12T11:12:48.053Z,100.00
2023-04-12T11:15:14.590Z,100.00
2023-04-12T11:17:41.054Z,100.00
2023-04-12T11:20:12.241Z,100.00
2023-04-12T11:22:40.931Z,100.00
2023-04-12T11:25:07.737Z,100.00
2023-04-12T11:27:34.587Z,100.00
2023-04-12T11:30:01.610Z,100.00
2023-04-12T11:32:30.270Z,100.00
2023-04-12T11:34:58.191Z,100.00
2023-04-12T11:37:26.806Z,100.00
2023-04-12T11:39:55.660Z,100.00
2023-04-12T11:42:25.345Z,100.00
2023-04-12T11:44:58.985Z,100.00
2023-04-12T11:47:27.774Z,100.00
2023-04-12T11:49:57.129Z,100.00
2023-04-12T11:52:32.136Z,100.00
2023-04-12T11:55:05.249Z,100.00
2023-04-12T11:57:32.077Z,100.00
2023-04-12T12:00:02.284Z,100.00
2023-04-12T12:02:32.354Z,100.00
2023-04-12T12:05:03.583Z,100.00
2023-04-12T12:07:30.753Z,100.00
2023-04-12T12:09:57.839Z,100.00
2023-04-12T12:12:25.102Z,100.00
2023-04-12T12:14:51.732Z,100.00
2023-04-12T12:17:18.215Z,100.00
2023-04-12T12:19:46.141Z,100.00
2023-04-12T12:22:16.214Z,100.00
2023-04-12T12:24:58.639Z,100.00
2023-04-12T12:27:34.549Z,100.00
2023-04-12T12:30:02.487Z,100.00
2023-04-12T12:32:33.289Z,100.00
2023-04-12T12:34:59.807Z,100.00
2023-04-12T12:37:27.832Z,100.00
2023-04-12T12:40:28.265Z,100.00
2023-04-12T12:42:55.942Z,100.00
2023-04-12T12:45:24.450Z,100.00
2023-04-12T12:47:53.778Z,100.00
2023-04-12T12:50:24.741Z,100.00
2023-04-12T12:52:52.852Z,100.00
2023-04-12T12:55:21.090Z,100.00
2023-04-12T12:58:02.141Z,100.00
2023-04-12T13:00:32.984Z,100.00
2023-04-12T13:02:59.643Z,100.00
2023-04-12T13:05:26.492Z,100.00
2023-04-12T13:07:52.984Z,100.00
2023-04-12T13:10:19.493Z,100.00
2023-04-12T13:12:46.112Z,100.00
2023-04-12T13:15:22.398Z,100.00
2023-04-12T13:17:52.415Z,100.00
2023-04-12T13:20:19.121Z,100.00
2023-04-12T13:22:45.611Z,100.00
2023-04-12T13:25:12.142Z,100.00
2023-04-12T13:27:38.597Z,100.00
2023-04-12T13:30:06.212Z,100.00
2023-04-12T13:32:32.863Z,100.00
2023-04-12T13:34:59.400Z,100.00
2023-04-12T13:37:25.972Z,100.00
2023-04-12T13:39:52.820Z,100.00
2023-04-12T13:42:19.435Z,100.00
2023-04-12T13:44:46.006Z,100.00
2023-04-12T13:47:12.579Z,100.00
2023-04-12T13:49:39.035Z,100.00
2023-04-12T13:52:05.810Z,100.00
2023-04-12T13:54:32.459Z,100.00
2023-04-12T13:56:59.360Z,100.00
2023-04-12T13:59:26.674Z,100.00
2023-04-12T14:01:53.679Z,100.00
2023-04-12T14:04:20.562Z,100.00
2023-04-12T14:06:47.052Z,100.00
2023-04-12T14:09:30.873Z,100.00
2023-04-12T14:11:58.476Z,100.00
2023-04-12T14:14:26.205Z,100.00
2023-04-12T14:16:56.943Z,100.00
2023-04-12T14:19:24.101Z,100.00
2023-04-12T14:21:50.937Z,100.00
2023-04-12T14:24:18.405Z,100.00
2023-04-12T14:26:45.315Z,100.00
2023-04-12T14:29:11.904Z,100.00
2023-04-12T14:31:38.518Z,100.00
2023-04-12T14:34:05.513Z,100.00
2023-04-12T14:36:33.412Z,100.00
2023-04-12T14:39:01.719Z,100.00
2023-04-12T14:41:28.373Z,100.00
2023-04-12T14:43:54.794Z,100.00
2023-04-12T14:46:21.480Z,100.00
2023-04-12T14:48:47.970Z,100.00
2023-04-12T14:51:14.390Z,100.00
2023-04-12T14:53:42.481Z,100.00
2023-04-12T14:56:24.554Z,100.00
2023-04-12T14:58:55.798Z,100.00
2023-04-12T15:01:23.651Z,100.00
2023-04-12T15:03:51.830Z,100.00
2023-04-12T15:06:19.332Z,100.00
2023-04-12T15:08:46.616Z,100.00
2023-04-12T15:11:13.432Z,100.00
2023-04-12T15:13:41.490Z,100.00
2023-04-12T15:16:09.204Z,100.00
2023-04-12T15:18:39.327Z,100.00
2023-04-12T15:21:08.215Z,100.00
2023-04-12T15:23:39.741Z,100.00
2023-04-12T15:26:09.438Z,100.00
2023-04-12T15:28:36.398Z,100.00
2023-04-12T15:31:02.979Z,100.00
2023-04-12T15:33:30.229Z,97.09
2023-04-12T15:35:56.763Z,95.71
2023-04-12T15:38:26.329Z,95.30
2023-04-12T15:41:00.641Z,85.59
2023-04-12T15:43:27.991Z,84.54
2023-04-12T15:45:54.885Z,75.77
2023-04-12T15:48:23.172Z,73.02
2023-04-12T15:50:50.880Z,70.48
2023-04-12T15:53:20.387Z,68.82
2023-04-12T15:55:47.652Z,68.01
2023-04-12T15:58:14.714Z,62.40
2023-04-12T16:00:41.262Z,59.28
2023-04-12T16:03:09.086Z,59.27
2023-04-12T16:05:35.947Z,57.82
2023-04-12T16:08:02.731Z,56.19
2023-04-12T16:10:30.225Z,56.61
2023-04-12T16:12:57.155Z,54.54
2023-04-12T16:15:23.727Z,53.47
2023-04-12T16:17:54.375Z,54.25
2023-04-12T16:20:22.039Z,53.56
2023-04-12T16:22:54.102Z,51.40
2023-04-12T16:25:22.381Z,50.91
2023-04-12T16:27:48.809Z,51.31
2023-04-12T16:30:15.765Z,51.44
2023-04-12T16:32:44.989Z,51.71
2023-04-12T16:35:11.634Z,52.65
2023-04-12T16:37:38.146Z,53.19
2023-04-12T16:40:07.982Z,53.19
2023-04-12T16:42:34.380Z,54.15
2023-04-12T16:45:00.867Z,64.14
2023-04-12T16:47:27.371Z,71.91
2023-04-12T16:49:53.849Z,79.18
2023-04-12T16:52:20.395Z,79.22
2023-04-12T16:54:46.867Z,77.67
2023-04-12T16:57:13.291Z,78.04
2023-04-12T16:59:42.317Z,78.89
2023-04-12T17:02:08.789Z,79.14
2023-04-12T17:04:35.327Z,81.30
2023-04-12T17:07:02.499Z,82.83
2023-04-12T17:09:29.296Z,86.18
2023-04-12T17:11:56.567Z,88.78
2023-04-12T17:14:23.044Z,90.14
2023-04-12T17:16:49.488Z,94.42
2023-04-12T17:19:15.986Z,94.43
2023-04-12T17:21:42.656Z,97.69
2023-04-12T17:24:09.366Z,98.41
2023-04-12T17:26:37.294Z,98.36
2023-04-12T17:29:04.201Z,100.00
2023-04-12T17:34:05.990Z,100.00
2023-04-12T17:36:33.780Z,100.00
2023-04-12T17:39:04.242Z,100.00
2023-04-12T17:41:31.392Z,100.00
2023-04-12T17:43:59.233Z,100.00
2023-04-12T17:46:26.471Z,100.00
2023-04-12T17:48:53.295Z,100.00
2023-04-12T17:51:19.845Z,100.00
2023-04-12T17:53:46.428Z,100.00
2023-04-12T17:56:12.903Z,100.00
2023-04-12T17:58:39.335Z,100.00
2023-04-12T18:01:06.016Z,100.00
2023-04-12T18:03:32.585Z,100.00
2023-04-12T18:05:59.463Z,100.00
2023-04-12T18:08:25.979Z,100.00
2023-04-12T18:10:52.443Z,100.00
2023-04-12T18:13:19.187Z,100.00
2023-04-12T18:15:46.118Z,100.00
2023-04-12T18:18:12.695Z,100.00
2023-04-12T18:20:39.387Z,100.00
2023-04-12T18:23:05.947Z,100.00
2023-04-12T18:25:32.358Z,100.00
2023-04-12T18:27:59.082Z,100.00
2023-04-12T18:30:25.604Z,100.00
2023-04-12T18:32:52.158Z,100.00
2023-04-12T18:35:18.828Z,100.00
2023-04-12T18:37:45.668Z,100.00
2023-04-12T18:40:13.189Z,100.00
2023-04-12T18:42:39.714Z,100.00
2023-04-12T18:45:06.756Z,100.00
2023-04-12T18:47:33.305Z,100.00
2023-04-12T18:49:59.805Z,100.00
2023-04-12T18:52:26.272Z,100.00
2023-04-12T18:54:52.756Z,100.00
2023-04-12T18:57:19.316Z,100.00
2023-04-12T18:59:47.873Z,100.00
2023-04-12T19:02:15.194Z,100.00
2023-04-12T19:04:42.015Z,100.00
2023-04-12T19:07:08.490Z,100.00
2023-04-12T19:09:35.012Z,100.00
2023-04-12T19:12:03.002Z,100.00
2023-04-12T19:14:30.596Z,100.00
2023-04-12T19:16:57.380Z,100.00
2023-04-12T19:19:23.872Z,100.00
2023-04-12T19:21:50.304Z,100.00
2023-04-12T19:24:17.398Z,100.00
2023-04-12T19:26:47.261Z,100.00
2023-04-12T19:29:18.773Z,100.00
2023-04-12T19:31:47.573Z,100.00
2023-04-12T19:34:17.765Z,100.00
2023-04-12T19:36:44.625Z,100.00
2023-04-12T19:39:11.262Z,100.00
2023-04-12T19:41:37.725Z,100.00
2023-04-12T19:44:04.190Z,100.00
2023-04-12T19:46:32.646Z,100.00
2023-04-12T19:48:59.507Z,100.00
2023-04-12T19:51:26.236Z,100.00
2023-04-12T19:53:54.688Z,100.00
2023-04-12T19:56:23.357Z,100.00
2023-04-12T19:58:50.028Z,100.00
2023-04-12T20:01:16.551Z,100.00
2023-04-12T20:03:43.800Z,100.00
2023-04-12T20:06:10.950Z,100.00
2023-04-12T20:08:37.879Z,100.00
2023-04-12T20:11:04.715Z,100.00
2023-04-12T20:13:31.485Z,100.00
2023-04-12T20:16:00.705Z,100.00
2023-04-12T20:18:28.415Z,100.00
2023-04-12T20:20:57.614Z,100.00
2023-04-12T20:23:25.427Z,100.00
2023-04-12T20:25:51.957Z,100.00
2023-04-12T20:28:18.550Z,100.00
2023-04-12T20:30:47.910Z,100.00
2023-04-12T20:33:15.071Z,100.00
2023-04-12T20:35:42.467Z,100.00
2023-04-12T20:38:08.982Z,100.00
2023-04-12T20:40:35.904Z,100.00
2023-04-12T20:43:03.472Z,100.00
2023-04-12T20:45:30.102Z,100.00
2023-04-12T20:47:56.708Z,100.00
2023-04-12T20:50:24.498Z,100.00
2023-04-12T20:52:56.154Z,100.00
2023-04-12T20:55:25.280Z,100.00
2023-04-12T20:57:55.673Z,100.00
2023-04-12T21:00:23.528Z,100.00
2023-04-12T21:02:50.219Z,100.00
2023-04-12T21:05:18.042Z,100.00
2023-04-12T21:07:46.916Z,100.00
2023-04-12T21:10:14.792Z,100.00
2023-04-12T21:12:42.713Z,100.00
2023-04-12T21:15:11.683Z,100.00
2023-04-12T21:17:38.539Z,100.00
2023-04-12T21:20:11.421Z,100.00
2023-04-12T21:22:37.935Z,100.00
2023-04-12T21:25:04.776Z,100.00
2023-04-12T21:27:31.214Z,100.00
2023-04-12T21:29:58.139Z,100.00
2023-04-12T21:32:25.167Z,100.00
2023-04-12T21:34:51.607Z,100.00
2023-04-12T21:37:18.077Z,100.00
2023-04-12T21:39:44.506Z,100.00
2023-04-12T21:42:11.017Z,100.00
2023-04-12T21:44:39.606Z,100.00
2023-04-12T21:47:06.686Z,100.00
2023-04-12T21:49:34.235Z,100.00
2023-04-12T21:52:00.669Z,100.00
2023-04-12T21:54:31.296Z,100.00
2023-04-12T21:56:58.236Z,100.00
2023-04-12T21:59:25.682Z,100.00
2023-04-12T22:01:52.323Z,100.00
2023-04-12T22:04:19.088Z,100.00
2023-04-12T22:06:45.448Z,100.00
2023-04-12T22:09:12.364Z,100.00
2023-04-12T22:11:39.260Z,100.00
2023-04-12T22:14:05.686Z,100.00
2023-04-12T22:16:32.862Z,100.00
2023-04-12T22:19:00.431Z,100.00
2023-04-12T22:21:28.231Z,100.00
2023-04-12T22:23:55.182Z,100.00
2023-04-12T22:26:21.598Z,100.00
2023-04-12T22:28:49.689Z,100.00
2023-04-12T22:31:16.419Z,100.00
2023-04-12T22:33:43.775Z,100.00
2023-04-12T22:36:10.409Z,100.00
2023-04-12T22:38:37.752Z,100.00
2023-04-12T22:41:04.419Z,100.00
2023-04-12T22:43:41.989Z,100.00
2023-04-12T22:46:16.188Z,100.00
2023-04-12T22:48:43.747Z,100.00
2023-04-12T22:51:10.929Z,100.00
2023-04-12T22:53:37.752Z,100.00
2023-04-12T22:56:04.447Z,100.00
2023-04-12T22:58:31.339Z,100.00
2023-04-12T23:00:58.822Z,100.00
2023-04-12T23:03:25.650Z,100.00
2023-04-12T23:05:52.437Z,100.00
2023-04-12T23:08:20.174Z,100.00
2023-04-12T23:10:46.763Z,100.00
2023-04-12T23:13:13.377Z,100.00
2023-04-12T23:15:40.615Z,100.00
2023-04-12T23:18:10.676Z,100.00
2023-04-12T23:20:38.384Z,100.00
2023-04-12T23:23:05.609Z,100.00
2023-04-12T23:25:40.095Z,100.00
2023-04-12T23:28:12.549Z,100.00
2023-04-12T23:30:45.118Z,100.00
2023-04-12T23:33:12.048Z,100.00
2023-04-12T23:35:39.649Z,100.00
2023-04-12T23:38:06.171Z,100.00
2023-04-12T23:40:33.109Z,100.00
2023-04-12T23:42:59.526Z,100.00
2023-04-12T23:45:26.204Z,100.00
2023-04-12T23:47:56.342Z,100.00
2023-04-12T23:50:23.475Z,100.00
2023-04-12T23:52:49.905Z,100.00
2023-04-12T23:55:16.550Z,100.00
2023-04-12T23:57:42.943Z,100.00
